Time;durP1;ratioP1;P1;durP2;ratioP2;P2;SDS_P1;SDS_P2;PMS_P1;PMS_P2;Temp;Humidity;BMP_temperature;BMP_pressure;BME280_temperature;BME280_humidity;BME280_pressure;Samples;Min_cycle;Max_cycle;Signal;HPM_P1;HPM_P2
2023/08/31 00:02:09;;;;;;;;;3.25;2.50;;;;;17.97;51.18;100598.88;5076366;28;46008;-71
2023/08/31 00:04:34;;;;;;;;;2.50;0.75;;;;;17.96;50.66;100605.09;5065238;28;45419;-72
2023/08/31 00:07:00;;;;;;;;;3.25;2.00;;;;;17.96;51.33;100601.63;5071978;27;54501;-71
2023/08/31 00:09:25;;;;;;;;;4.00;2.00;;;;;17.94;51.14;100606.16;5070567;27;45442;-71
2023/08/31 00:11:51;;;;;;;;;2.25;2.25;;;;;17.91;50.84;100603.69;5066566;28;45244;-71
2023/08/31 00:14:17;;;;;;;;;5.00;2.50;;;;;17.92;51.03;100611.53;5071420;28;45263;-71
2023/08/31 00:16:43;;;;;;;;;3.00;2.75;;;;;17.92;51.19;100611.53;5071420;28;45393;-71
2023/08/31 00:19:08;;;;;;;;;3.00;0.50;;;;;17.89;51.34;100608.22;5050080;28;45463;-72
2023/08/31 00:21:34;;;;;;;;;3.25;2.75;;;;;17.90;51.48;100604.63;5068115;28;48141;-72
2023/08/31 00:23:59;;;;;;;;;2.25;2.25;;;;;17.94;51.41;100614.09;5073429;28;45352;-71
2023/08/31 00:26:25;;;;;;;;;2.00;1.75;;;;;17.96;51.39;100610.41;5074182;28;45359;-71
2023/08/31 00:28:52;;;;;;;;;3.00;2.00;;;;;17.97;51.50;100608.59;5077148;27;45611;-71
2023/08/31 00:31:17;;;;;;;;;4.50;1.75;;;;;18.00;51.48;100619.84;5082549;28;45365;-71
2023/08/31 00:33:43;;;;;;;;;3.25;2.00;;;;;18.00;51.38;100608.44;5070262;27;54870;-71
2023/08/31 00:36:08;;;;;;;;;1.50;1.00;;;;;18.04;51.48;100612.59;5068230;28;45505;-71
2023/08/31 00:38:33;;;;;;;;;2.50;2.00;;;;;18.05;51.35;100606.34;5075445;27;65643;-71
2023/08/31 00:41:00;;;;;;;;;3.25;2.00;;;;;18.06;51.36;100592.19;5070058;28;70989;-71
2023/08/31 00:43:25;;;;;;;;;4.25;1.25;;;;;18.06;51.09;100580.72;5069340;28;66522;-72
2023/08/31 00:45:54;;;;;;;;;2.00;2.00;;;;;18.05;51.27;100586.97;5070734;28;45504;-72
2023/08/31 00:48:19;;;;;;;;;2.75;2.00;;;;;18.08;51.25;100594.72;5078038;27;45496;-72
2023/08/31 00:50:45;;;;;;;;;2.50;2.00;;;;;18.10;51.38;100600.78;5074526;28;45950;-72
2023/08/31 00:53:11;;;;;;;;;4.75;1.75;;;;;18.10;51.34;100600.78;5060852;28;45510;-72
2023/08/31 00:55:38;;;;;;;;;3.75;2.00;;;;;18.10;50.96;100595.50;5075017;27;45529;-71
2023/08/31 00:58:05;;;;;;;;;2.75;1.75;;;;;18.10;51.04;100591.03;5076186;27;46497;-71
2023/08/31 01:00:37;;;;;;;;;3.25;1.75;;;;;18.09;51.00;100589.31;5072959;27;46387;-72
2023/08/31 01:03:09;;;;;;;;;4.25;0.75;;;;;18.10;51.04;100596.34;5068912;27;45680;-71
2023/08/31 01:05:50;;;;;;;;;3.00;1.75;;;;;18.08;51.12;100595.59;5076914;27;45449;-71
2023/08/31 01:08:22;;;;;;;;;2.50;1.75;;;;;18.05;50.80;100589.63;5073904;27;45567;-71
2023/08/31 01:11:00;;;;;;;;;3.00;1.00;;;;;18.05;51.07;100594.91;5080375;27;45737;-72
2023/08/31 01:13:26;;;;;;;;;2.00;2.00;;;;;18.04;51.26;100594.03;5087815;27;45565;-71
2023/08/31 01:15:55;;;;;;;;;5.00;2.25;;;;;18.02;51.54;100596.81;5088821;27;45282;-70
2023/08/31 01:18:25;;;;;;;;;1.00;1.00;;;;;18.07;51.26;100596.50;5072128;27;45634;-70
2023/08/31 01:21:13;;;;;;;;;5.25;2.25;;;;;18.08;51.19;100600.88;5073221;27;46313;-71
2023/08/31 01:23:58;;;;;;;;;3.25;1.50;;;;;18.12;51.38;100609.50;5065273;28;45856;-70
2023/08/31 01:26:24;;;;;;;;;3.00;2.00;;;;;18.12;51.39;100606.84;5076216;27;45495;-70
2023/08/31 01:28:51;;;;;;;;;2.00;2.00;;;;;18.12;51.26;100604.19;5073604;28;45780;-70
2023/08/31 01:31:16;;;;;;;;;4.00;2.50;;;;;18.13;51.20;100609.41;5086955;27;48072;-71
2023/08/31 01:33:42;;;;;;;;;2.75;1.00;;;;;18.15;51.30;100599.56;5071137;27;60380;-71
2023/08/31 01:36:28;;;;;;;;;2.00;2.00;;;;;18.16;51.17;100606.53;5072227;27;45640;-71
2023/08/31 01:39:08;;;;;;;;;2.00;2.00;;;;;18.14;51.10;100607.59;5081075;27;45347;-70
2023/08/31 01:41:37;;;;;;;;;2.25;2.00;;;;;18.16;51.10;100603.06;5071323;27;46249;-70
2023/08/31 01:44:03;;;;;;;;;2.50;2.50;;;;;18.19;50.99;100613.47;5076246;27;45621;-70
2023/08/31 01:46:29;;;;;;;;;3.25;1.25;;;;;18.19;51.23;100606.38;5067583;28;46335;-70
2023/08/31 01:48:54;;;;;;;;;3.50;2.00;;;;;18.19;50.85;100608.16;5073683;27;45468;-70
2023/08/31 01:51:20;;;;;;;;;1.00;1.00;;;;;18.23;51.12;100620.28;5073480;28;70021;-70
2023/08/31 01:53:45;;;;;;;;;2.00;1.00;;;;;18.20;50.95;100610.72;5065713;28;71974;-70
2023/08/31 01:56:10;;;;;;;;;2.50;1.75;;;;;18.20;50.80;100602.78;5078373;27;50485;-71
2023/08/31 01:58:36;;;;;;;;;2.75;2.50;;;;;18.20;51.12;100605.44;5054934;28;65771;-70
2023/08/31 02:01:01;;;;;;;;;1.75;1.75;;;;;18.21;50.75;100601.81;5073170;27;48078;-70
2023/08/31 02:03:27;;;;;;;;;2.00;2.00;;;;;18.23;50.72;100603.53;5071084;27;45475;-70
2023/08/31 02:05:52;;;;;;;;;2.75;2.00;;;;;18.21;50.98;100604.47;5075363;27;45697;-70
2023/08/31 02:08:17;;;;;;;;;6.25;3.75;;;;;18.20;50.91;100604.56;5066602;27;46320;-70
2023/08/31 02:10:44;;;;;;;;;3.00;2.00;;;;;18.20;51.18;100599.25;5077097;28;45775;-70
2023/08/31 02:13:09;;;;;;;;;0.50;0.00;;;;;18.18;51.08;100599.38;5076692;28;45509;-71
2023/08/31 02:15:38;;;;;;;;;1.25;1.25;;;;;18.16;51.03;100601.25;5067411;27;45364;-71
2023/08/31 02:18:03;;;;;;;;;4.25;1.25;;;;;18.14;50.98;100602.31;5070077;27;45594;-71
2023/08/31 02:20:30;;;;;;;;;3.75;1.75;;;;;18.12;50.84;100605.03;5076343;28;48275;-71
2023/08/31 02:22:55;;;;;;;;;3.50;1.50;;;;;18.10;51.38;100601.63;5078104;27;45515;-71
2023/08/31 02:25:21;;;;;;;;;2.25;2.00;;;;;18.11;51.38;100598.03;5088482;27;45349;-71
2023/08/31 02:27:46;;;;;;;;;2.25;1.50;;;;;18.10;51.22;100596.34;5064474;27;71802;-70
2023/08/31 02:30:11;;;;;;;;;3.50;2.50;;;;;18.13;51.07;100596.16;5064042;27;63834;-69
2023/08/31 02:32:37;;;;;;;;;2.75;2.75;;;;;18.12;51.33;100593.59;5072881;28;45415;-70
2023/08/31 02:35:02;;;;;;;;;5.00;2.50;;;;;18.13;51.30;100596.16;5072577;28;45282;-70
2023/08/31 02:37:28;;;;;;;;;2.00;2.00;;;;;18.13;51.39;100600.59;5069580;28;47069;-70
2023/08/31 02:39:53;;;;;;;;;1.75;1.00;;;;;18.14;51.67;100607.59;5075688;27;47845;-71
2023/08/31 02:42:18;;;;;;;;;2.00;1.00;;;;;18.13;51.53;100597.94;5066596;28;62893;-71
2023/08/31 02:44:44;;;;;;;;;3.75;1.00;;;;;18.13;51.25;100595.28;5067935;27;62751;-70
2023/08/31 02:47:09;;;;;;;;;2.75;1.50;;;;;18.14;51.24;100594.34;5063268;28;65673;-71
2023/08/31 02:49:34;;;;;;;;;4.75;2.75;;;;;18.10;51.21;100603.44;5074275;27;71013;-70
2023/08/31 02:52:00;;;;;;;;;2.00;2.00;;;;;18.12;51.13;100610.34;5068239;28;65261;-70
2023/08/31 02:54:25;;;;;;;;;2.75;1.00;;;;;18.14;51.36;100605.78;5068735;27;63988;-70
2023/08/31 02:56:50;;;;;;;;;3.00;2.50;;;;;18.13;51.48;100601.47;5081390;27;54518;-69
2023/08/31 02:59:17;;;;;;;;;1.75;1.75;;;;;18.15;51.29;100599.56;5078044;27;45973;-69
2023/08/31 03:01:46;;;;;;;;;3.25;1.50;;;;;18.19;51.86;100610.81;5071649;28;45318;-70
2023/08/31 03:04:11;;;;;;;;;7.00;1.50;;;;;18.19;51.54;100600.22;5058018;28;45544;-70
2023/08/31 03:06:36;;;;;;;;;1.00;1.00;;;;;18.20;51.41;100601.91;5073731;27;45470;-70
2023/08/31 03:09:02;;;;;;;;;2.25;1.50;;;;;18.21;51.46;100604.47;5079378;27;72502;-70
2023/08/31 03:11:27;;;;;;;;;1.50;1.00;;;;;18.21;51.34;100604.47;5063687;27;45771;-71
2023/08/31 03:13:52;;;;;;;;;3.00;1.50;;;;;18.26;51.48;100603.34;5063268;27;57336;-70
2023/08/31 03:16:18;;;;;;;;;2.75;1.00;;;;;18.25;51.31;100594.53;5065157;27;67290;-71
2023/08/31 03:18:43;;;;;;;;;2.25;1.00;;;;;18.29;51.44;100595.19;5070166;27;76528;-70
2023/08/31 03:21:09;;;;;;;;;6.00;2.75;;;;;18.31;51.21;100591.53;5065431;27;69020;-70
2023/08/31 03:23:34;;;;;;;;;2.50;1.00;;;;;18.33;51.42;100586.13;5073433;27;45300;-71
2023/08/31 03:26:00;;;;;;;;;2.75;1.25;;;;;18.33;51.21;100583.50;5070445;28;45374;-71
2023/08/31 03:28:25;;;;;;;;;3.75;2.00;;;;;18.35;51.56;100592.19;5067962;27;46456;-71
2023/08/31 03:30:57;;;;;;;;;2.00;1.00;;;;;18.33;51.61;100591.44;5073947;27;45326;-71
2023/08/31 03:33:22;;;;;;;;;1.25;1.00;;;;;18.34;51.62;100594.00;5075070;27;45496;-71
2023/08/31 03:35:47;;;;;;;;;1.75;0.75;;;;;18.36;51.45;100589.44;5068054;27;45572;-71
2023/08/31 03:38:13;;;;;;;;;3.75;2.00;;;;;18.34;51.31;100582.53;5088839;27;58335;-69
2023/08/31 03:40:38;;;;;;;;;1.25;1.00;;;;;18.32;51.30;100581.78;5057781;28;67495;-70
2023/08/31 03:43:03;;;;;;;;;4.00;1.75;;;;;18.31;51.53;100588.00;5070757;28;64771;-71
2023/08/31 03:45:29;;;;;;;;;2.50;2.00;;;;;18.30;51.35;100583.66;5067561;28;66671;-70
2023/08/31 03:47:54;;;;;;;;;3.50;2.00;;;;;18.27;51.21;100590.00;5065205;28;57320;-70
2023/08/31 03:50:19;;;;;;;;;2.50;1.50;;;;;18.27;51.58;100591.78;5065769;27;45893;-71
2023/08/31 03:52:45;;;;;;;;;4.25;2.75;;;;;18.24;51.72;100590.22;5064928;28;45475;-71
2023/08/31 03:55:10;;;;;;;;;3.75;1.75;;;;;18.25;51.55;100589.25;5072043;28;71204;-70
2023/08/31 03:57:35;;;;;;;;;5.50;2.00;;;;;18.25;51.61;100588.41;5071709;28;65719;-70
2023/08/31 04:00:01;;;;;;;;;1.50;1.00;;;;;18.24;51.70;100590.22;5080935;27;46315;-71
2023/08/31 04:02:26;;;;;;;;;4.50;2.25;;;;;18.22;51.81;100578.84;5078177;28;45327;-70
2023/08/31 04:04:52;;;;;;;;;2.00;1.25;;;;;18.22;51.66;100584.16;5081033;27;45406;-71
2023/08/31 04:07:17;;;;;;;;;3.00;2.00;;;;;18.19;51.60;100587.81;5076700;28;64206;-70
2023/08/31 04:09:43;;;;;;;;;3.75;1.25;;;;;18.17;51.67;100587.06;5072776;27;45410;-70
2023/08/31 04:12:08;;;;;;;;;2.50;2.50;;;;;18.19;52.20;100592.28;5074195;27;45501;-70
2023/08/31 04:14:33;;;;;;;;;2.50;2.00;;;;;18.16;51.98;100587.16;5067858;27;64400;-71
2023/08/31 04:16:58;;;;;;;;;3.00;1.25;;;;;18.15;52.00;100596.91;5074001;27;50700;-71
2023/08/31 04:19:24;;;;;;;;;3.00;1.00;;;;;18.12;52.00;100583.84;5077592;27;61476;-71
2023/08/31 04:21:49;;;;;;;;;2.00;2.00;;;;;18.16;52.08;100590.66;5074493;27;45295;-71
2023/08/31 04:24:15;;;;;;;;;4.00;2.00;;;;;18.12;52.06;100588.31;5093101;27;75163;-70
2023/08/31 04:26:40;;;;;;;;;3.50;1.75;;;;;18.09;52.33;100589.31;5083848;27;46830;-71
2023/08/31 04:29:05;;;;;;;;;1.00;1.00;;;;;18.07;52.43;100587.72;5078140;27;73050;-71
2023/08/31 04:31:34;;;;;;;;;2.50;2.00;;;;;18.03;52.51;100587.91;5075237;27;68499;-70
2023/08/31 04:33:59;;;;;;;;;2.50;1.50;;;;;18.05;52.81;100592.28;5072190;27;45436;-71
2023/08/31 04:36:27;;;;;;;;;2.00;2.00;;;;;18.00;52.94;100589.88;5055726;27;63894;-71
2023/08/31 04:38:53;;;;;;;;;4.00;3.00;;;;;17.96;53.08;100601.63;5074460;27;45437;-70
2023/08/31 04:41:18;;;;;;;;;1.25;1.25;;;;;17.93;52.95;100597.34;5072832;27;66480;-71
2023/08/31 04:43:44;;;;;;;;;2.25;2.00;;;;;17.89;53.03;100595.84;5072849;27;45612;-71
2023/08/31 04:46:09;;;;;;;;;4.00;2.00;;;;;17.88;53.18;100602.06;5066107;27;45766;-70
2023/08/31 04:48:36;;;;;;;;;3.00;2.50;;;;;17.86;53.16;100609.25;5072648;27;45446;-70
2023/08/31 04:51:01;;;;;;;;;5.00;2.00;;;;;17.84;53.15;100606.66;5070378;27;45288;-71
2023/08/31 04:53:30;;;;;;;;;6.50;2.00;;;;;17.84;52.90;100608.47;5074500;27;45458;-71
2023/08/31 04:55:55;;;;;;;;;4.00;2.75;;;;;17.83;53.23;100618.19;5090723;27;47452;-71
2023/08/31 04:58:20;;;;;;;;;4.25;2.00;;;;;17.82;53.18;100613.84;5051612;27;45996;-71
2023/08/31 05:00:47;;;;;;;;;3.25;2.00;;;;;17.82;53.16;100616.50;5074453;28;53010;-70
2023/08/31 05:03:12;;;;;;;;;2.25;2.25;;;;;17.85;53.39;100615.47;5069055;27;45453;-71
2023/08/31 05:05:37;;;;;;;;;2.50;2.00;;;;;17.84;53.31;100619.03;5061908;28;47460;-70
2023/08/31 05:08:03;;;;;;;;;4.50;1.75;;;;;17.83;53.27;100612.91;5072097;27;45681;-70
2023/08/31 05:10:28;;;;;;;;;3.50;2.50;;;;;17.85;53.33;100612.81;5058338;28;45436;-71
2023/08/31 05:12:54;;;;;;;;;5.75;2.25;;;;;17.84;53.05;100611.94;5073705;28;49776;-71
2023/08/31 05:15:19;;;;;;;;;3.00;2.00;;;;;17.84;52.89;100616.41;5073956;28;52642;-70
2023/08/31 05:17:45;;;;;;;;;3.00;2.25;;;;;17.86;53.04;100616.34;5075402;27;65149;-70
2023/08/31 05:20:10;;;;;;;;;4.50;2.00;;;;;17.86;53.08;100614.53;5076125;27;46212;-70
2023/08/31 05:22:36;;;;;;;;;1.75;1.75;;;;;17.86;52.97;100621.63;5071627;27;45410;-70
2023/08/31 05:25:01;;;;;;;;;3.50;3.00;;;;;17.84;52.72;100619.88;5060255;28;45631;-68
2023/08/31 05:27:27;;;;;;;;;4.00;1.50;;;;;17.84;52.97;100619.03;5060225;27;45313;-69
2023/08/31 05:29:52;;;;;;;;;7.00;2.00;;;;;17.81;52.97;100620.09;5073518;27;45498;-68
2023/08/31 05:32:17;;;;;;;;;6.25;2.00;;;;;17.84;52.92;100624.34;5067760;27;72956;-68
2023/08/31 05:34:42;;;;;;;;;2.50;2.00;;;;;17.85;52.88;100623.41;5075025;27;71832;-67
2023/08/31 05:37:08;;;;;;;;;4.00;2.75;;;;;17.89;52.87;100630.25;5073114;27;45238;-67
2023/08/31 05:39:34;;;;;;;;;1.25;1.25;;;;;17.89;53.08;100630.25;5075941;27;45305;-67
2023/08/31 05:41:59;;;;;;;;;2.75;2.00;;;;;17.89;52.95;100630.25;5075693;27;65372;-67
2023/08/31 05:44:25;;;;;;;;;2.00;1.50;;;;;17.91;52.84;100633.66;5069705;27;47588;-67
2023/08/31 05:46:50;;;;;;;;;4.50;2.00;;;;;17.92;52.65;100635.38;5079635;27;62358;-68
2023/08/31 05:49:15;;;;;;;;;5.25;4.00;;;;;17.94;52.65;100640.56;5072396;27;45436;-68
2023/08/31 05:51:41;;;;;;;;;4.75;2.75;;;;;17.91;52.89;100635.47;5075135;28;68021;-68
2023/08/31 05:54:10;;;;;;;;;3.00;3.00;;;;;17.94;52.42;100640.56;5076024;28;64696;-68
2023/08/31 05:56:36;;;;;;;;;4.25;1.75;;;;;17.96;52.89;100636.88;5074401;27;45393;-68
2023/08/31 05:59:02;;;;;;;;;3.00;3.00;;;;;17.98;52.85;100642.94;5074277;27;45598;-68
2023/08/31 06:01:27;;;;;;;;;5.25;2.00;;;;;18.01;53.14;100640.13;5072842;27;45405;-69
2023/08/31 06:03:52;;;;;;;;;2.75;2.00;;;;;18.04;53.00;100647.00;5068821;28;72575;-70
2023/08/31 06:06:18;;;;;;;;;4.25;2.75;;;;;18.05;52.94;100650.53;5071541;27;54268;-68
2023/08/31 06:08:43;;;;;;;;;2.00;2.00;;;;;18.06;52.97;100663.69;5071656;27;68975;-68
2023/08/31 06:11:08;;;;;;;;;2.00;2.00;;;;;18.08;53.09;100652.97;5068330;27;45260;-68
2023/08/31 06:13:34;;;;;;;;;6.75;2.25;;;;;18.10;52.87;100651.09;5069524;27;47161;-68
2023/08/31 06:15:59;;;;;;;;;2.50;2.00;;;;;18.12;52.96;100655.34;5075071;27;69460;-68
2023/08/31 06:18:25;;;;;;;;;4.25;2.25;;;;;18.14;53.23;100653.47;5078603;27;46413;-68
2023/08/31 06:20:51;;;;;;;;;5.00;2.00;;;;;18.17;52.97;100655.09;5054707;27;46083;-69
2023/08/31 06:23:16;;;;;;;;;2.50;2.50;;;;;18.20;52.66;100652.25;5076548;27;52927;-70
2023/08/31 06:25:41;;;;;;;;;2.00;2.00;;;;;18.25;52.62;100651.97;5079759;27;45693;-70
2023/08/31 06:28:08;;;;;;;;;2.00;1.00;;;;;18.25;52.80;100644.88;5076361;27;45917;-69
2023/08/31 06:30:34;;;;;;;;;3.75;2.00;;;;;18.29;52.52;100642.88;5071630;28;45398;-72
2023/08/31 06:33:00;;;;;;;;;2.75;1.75;;;;;18.33;52.67;100645.25;5074389;27;46333;-72
2023/08/31 06:35:25;;;;;;;;;2.75;2.00;;;;;18.33;52.59;100642.63;5077179;28;54703;-71
2023/08/31 06:37:50;;;;;;;;;1.50;1.50;;;;;18.42;52.40;100654.44;5075017;28;60140;-73
2023/08/31 06:40:16;;;;;;;;;3.00;2.25;;;;;18.44;52.40;100657.00;5076523;27;46851;-71
2023/08/31 06:42:41;;;;;;;;;3.25;2.50;;;;;18.47;52.36;100662.09;5071305;27;64208;-71
2023/08/31 06:45:08;;;;;;;;;5.25;3.25;;;;;18.49;52.47;100669.03;5076428;28;45413;-81
2023/08/31 06:47:34;;;;;;;;;4.75;2.00;;;;;18.49;52.40;100654.94;5072024;28;45387;-71
2023/08/31 06:49:59;;;;;;;;;4.00;2.75;;;;;18.50;52.47;100656.63;5077288;27;45546;-72
2023/08/31 06:52:26;;;;;;;;;2.50;2.00;;;;;18.51;52.28;100667.13;5062539;28;46197;-71
2023/08/31 06:54:55;;;;;;;;;3.75;2.00;;;;;18.53;52.52;100662.59;5070978;28;45745;-68
2023/08/31 06:57:23;;;;;;;;;5.00;2.50;;;;;18.58;52.50;100673.75;5074064;27;45501;-68
2023/08/31 06:59:49;;;;;;;;;5.50;3.00;;;;;18.53;51.97;100653.78;5068947;27;45436;-71
2023/08/31 07:02:14;;;;;;;;;1.25;1.25;;;;;18.59;52.35;100671.94;5076457;27;63014;-72
2023/08/31 07:04:40;;;;;;;;;4.75;2.75;;;;;18.63;52.13;100669.97;5076765;27;49001;-70
2023/08/31 07:07:05;;;;;;;;;5.75;2.50;;;;;18.70;52.01;100684.56;5077844;27;45499;-72
2023/08/31 07:09:31;;;;;;;;;5.50;2.00;;;;;18.71;52.07;100671.19;5077332;27;47558;-69
2023/08/31 07:11:58;;;;;;;;;4.50;3.25;;;;;18.81;51.87;100683.91;5072146;27;70195;-67
2023/08/31 07:14:23;;;;;;;;;2.50;2.00;;;;;18.87;51.75;100686.19;5072383;27;45791;-74
2023/08/31 07:16:48;;;;;;;;;5.00;2.75;;;;;18.93;51.87;100683.16;5049266;27;45477;-66
2023/08/31 07:19:14;;;;;;;;;3.50;1.75;;;;;18.99;50.97;100692.53;5062460;28;71182;-66
2023/08/31 07:21:39;;;;;;;;;2.25;1.00;;;;;18.99;51.17;100681.91;5072562;27;46090;-68
2023/08/31 07:24:05;;;;;;;;;1.25;1.00;;;;;19.03;51.13;100686.91;5067061;28;45504;-66
2023/08/31 07:26:30;;;;;;;;;4.00;2.50;;;;;19.06;50.83;100694.69;5077968;27;45418;-67
2023/08/31 07:28:55;;;;;;;;;2.25;2.00;;;;;19.09;50.89;100697.16;5078871;27;64937;-67
2023/08/31 07:31:21;;;;;;;;;4.75;2.50;;;;;19.10;50.71;100695.34;5085833;27;47283;-68
2023/08/31 07:33:46;;;;;;;;;4.75;1.00;;;;;19.14;50.72;100691.53;5077124;27;66922;-68
2023/08/31 07:36:11;;;;;;;;;2.25;2.00;;;;;19.16;50.11;100693.16;5073841;27;45474;-66
2023/08/31 07:38:37;;;;;;;;;2.50;2.00;;;;;19.23;49.75;100698.94;5076942;28;61790;-66
2023/08/31 07:41:04;;;;;;;;;3.00;1.75;;;;;19.26;50.16;100705.81;5076675;27;59651;-66
2023/08/31 07:43:29;;;;;;;;;5.00;2.00;;;;;19.29;50.02;100711.78;5079071;28;45312;-66
2023/08/31 07:45:55;;;;;;;;;3.00;1.75;;;;;19.29;50.11;100708.28;5073954;28;45497;-67
2023/08/31 07:48:20;;;;;;;;;5.50;2.50;;;;;19.29;49.98;100703.84;5073699;27;45302;-67
2023/08/31 07:50:45;;;;;;;;;4.00;4.00;;;;;19.34;50.13;100703.53;5077820;27;45319;-67
2023/08/31 07:53:11;;;;;;;;;5.00;3.00;;;;;19.36;50.30;100712.25;5078804;27;68425;-68
2023/08/31 07:55:37;;;;;;;;;3.00;1.50;;;;;19.40;49.52;100700.47;5087948;27;58062;-67
2023/08/31 07:58:02;;;;;;;;;5.25;3.00;;;;;19.47;49.60;100720.38;5072603;27;45794;-67
2023/08/31 08:00:27;;;;;;;;;3.00;2.00;;;;;19.54;49.95;100719.00;5065349;28;46598;-67
2023/08/31 08:02:53;;;;;;;;;3.75;2.00;;;;;19.62;49.30;100715.88;5072903;27;45276;-67
2023/08/31 08:05:18;;;;;;;;;3.00;2.00;;;;;19.68;49.11;100715.47;5072098;27;68131;-65
2023/08/31 08:07:44;;;;;;;;;3.00;1.00;;;;;19.74;48.84;100708.94;5072987;28;45648;-65
2023/08/31 08:10:10;;;;;;;;;5.00;2.50;;;;;19.83;48.60;100716.31;5077768;27;46431;-67
2023/08/31 08:12:39;;;;;;;;;6.25;1.50;;;;;19.94;48.73;100720.91;5086471;27;45312;-67
2023/08/31 08:15:06;;;;;;;;;3.25;2.50;;;;;20.02;48.67;100718.56;5073558;27;45307;-67
2023/08/31 08:17:32;;;;;;;;;2.75;2.00;;;;;20.13;48.24;100712.53;5071194;28;45457;-67
2023/08/31 08:19:57;;;;;;;;;1.00;1.00;;;;;20.21;48.25;100718.19;5071766;28;50082;-65
2023/08/31 08:22:24;;;;;;;;;2.75;2.75;;;;;20.26;47.62;100712.56;5065922;28;66740;-67
2023/08/31 08:24:49;;;;;;;;;4.00;2.00;;;;;20.26;47.70;100713.41;5073060;27;45335;-67
2023/08/31 08:27:16;;;;;;;;;2.25;2.00;;;;;20.33;47.53;100710.31;5071545;28;64067;-67
2023/08/31 08:29:41;;;;;;;;;3.00;1.50;;;;;20.39;48.26;100709.91;5078781;28;45386;-66
2023/08/31 08:32:08;;;;;;;;;2.50;2.50;;;;;20.46;47.93;100714.69;5066892;28;45290;-67
2023/08/31 08:34:34;;;;;;;;;3.50;2.00;;;;;20.53;47.26;100711.63;5071862;28;45426;-67
2023/08/31 08:36:59;;;;;;;;;4.00;2.00;;;;;20.57;47.40;100713.94;5073121;28;45456;-67
2023/08/31 08:39:24;;;;;;;;;5.50;3.00;;;;;20.63;46.96;100704.75;5071375;28;70950;-67
2023/08/31 08:41:51;;;;;;;;;6.00;2.00;;;;;20.65;46.67;100706.34;5070652;27;66382;-67
2023/08/31 08:44:16;;;;;;;;;2.25;1.75;;;;;20.65;47.09;100708.16;5081432;27;45450;-67
2023/08/31 08:46:43;;;;;;;;;4.75;2.25;;;;;20.66;46.95;100715.16;5074304;27;62841;-67
2023/08/31 08:49:08;;;;;;;;;2.00;2.00;;;;;20.69;46.43;100725.59;5073692;27;45893;-66
2023/08/31 08:51:34;;;;;;;;;4.00;2.00;;;;;20.69;46.53;100714.09;5069927;27;45340;-67
2023/08/31 08:54:00;;;;;;;;;4.25;4.00;;;;;20.75;46.77;100716.31;5075053;28;62971;-67
2023/08/31 08:56:26;;;;;;;;;3.00;2.00;;;;;20.77;46.54;100707.28;5080229;27;45430;-67
2023/08/31 08:58:51;;;;;;;;;2.00;2.00;;;;;20.81;45.97;100721.22;5075024;27;45319;-67
2023/08/31 09:01:17;;;;;;;;;4.50;2.75;;;;;20.79;46.52;100718.69;5080866;27;56212;-67
2023/08/31 09:03:43;;;;;;;;;1.00;1.00;;;;;20.79;46.57;100728.47;5075413;27;45322;-67
2023/08/31 09:06:10;;;;;;;;;8.00;3.00;;;;;20.75;45.92;100729.63;5068902;27;45319;-68
2023/08/31 09:08:37;;;;;;;;;6.50;2.00;;;;;20.70;45.98;100723.78;5082279;27;46151;-68
2023/08/31 09:11:02;;;;;;;;;2.00;2.00;;;;;20.71;46.19;100723.66;5069318;27;45508;-67
2023/08/31 09:13:29;;;;;;;;;5.00;2.00;;;;;20.75;45.82;100724.31;5081534;27;51493;-67
2023/08/31 09:15:55;;;;;;;;;4.00;3.00;;;;;20.76;46.33;100718.03;5075364;27;45437;-68
2023/08/31 09:18:27;;;;;;;;;3.75;1.75;;;;;20.82;46.43;100720.25;5072205;28;69068;-67
2023/08/31 09:20:53;;;;;;;;;0.25;0.00;;;;;20.91;46.59;100711.66;5075549;28;45331;-67
2023/08/31 09:23:18;;;;;;;;;48.25;36.25;;;;;20.94;46.65;100711.41;5081877;27;45321;-67
2023/08/31 09:25:53;;;;;;;;;60.00;45.75;;;;;20.98;47.10;100710.25;5075650;27;45359;-67
2023/08/31 09:28:30;;;;;;;;;3.00;1.75;;;;;21.00;46.57;100710.97;5081994;27;45394;-67
2023/08/31 09:31:06;;;;;;;;;3.75;2.75;;;;;21.00;46.74;100718.97;5074563;27;45443;-67
2023/08/31 09:33:32;;;;;;;;;6.00;3.00;;;;;20.99;46.85;100721.72;5081916;27;45245;-67
2023/08/31 09:35:59;;;;;;;;;4.50;2.00;;;;;20.99;46.42;100725.25;5063763;28;45473;-67
2023/08/31 09:38:25;;;;;;;;;5.75;2.00;;;;;21.01;46.37;100712.66;5075249;28;46252;-68
2023/08/31 09:40:50;;;;;;;;;2.75;2.00;;;;;21.11;47.07;100712.03;5075148;27;45372;-67
2023/08/31 09:43:21;;;;;;;;;2.75;2.00;;;;;21.22;46.84;100707.63;5080091;27;45307;-68
2023/08/31 09:45:47;;;;;;;;;2.25;2.25;;;;;21.28;46.70;100703.66;5075118;28;45369;-68
2023/08/31 09:48:13;;;;;;;;;3.00;2.00;;;;;21.31;46.42;100705.25;5073635;28;45337;-66
2023/08/31 09:50:39;;;;;;;;;6.50;1.50;;;;;21.26;46.21;100702.09;5078151;27;45264;-67
2023/08/31 09:53:05;;;;;;;;;3.75;2.25;;;;;21.21;46.69;100697.09;5051376;28;45435;-67
2023/08/31 09:55:35;;;;;;;;;10.75;10.75;;;;;21.14;46.76;100702.03;5079974;27;45485;-67
2023/08/31 09:58:01;;;;;;;;;5.75;2.50;;;;;21.10;47.27;100697.84;5086541;27;45343;-68
2023/08/31 10:00:29;;;;;;;;;4.25;3.25;;;;;21.13;46.90;100705.63;5066694;28;45256;-67
2023/08/31 10:02:56;;;;;;;;;6.50;4.50;;;;;21.22;47.32;100706.78;5078386;27;45489;-67
2023/08/31 10:05:22;;;;;;;;;6.75;6.25;;;;;21.26;46.79;100705.59;5061963;28;45567;-67
2023/08/31 10:07:50;;;;;;;;;5.25;3.00;;;;;21.27;47.52;100703.78;5075025;28;46110;-66
2023/08/31 10:10:15;;;;;;;;;3.50;3.50;;;;;21.29;46.87;100701.88;5072279;27;45696;-67
2023/08/31 10:12:41;;;;;;;;;6.00;3.75;;;;;21.31;47.59;100697.28;5077577;27;46437;-67
2023/08/31 10:15:07;;;;;;;;;6.50;4.00;;;;;21.33;47.33;100696.19;5079339;27;45296;-67
2023/08/31 10:17:32;;;;;;;;;8.25;3.25;;;;;21.36;47.77;100695.97;5076347;27;45421;-67
2023/08/31 10:19:58;;;;;;;;;6.50;3.00;;;;;21.39;48.51;100686.94;5079296;27;64350;-67
2023/08/31 10:22:23;;;;;;;;;4.00;4.00;;;;;21.44;48.59;100692.75;5067161;27;45229;-67
2023/08/31 10:24:58;;;;;;;;;5.25;4.00;;;;;21.43;48.66;100688.41;5069315;28;45241;-66
2023/08/31 10:27:24;;;;;;;;;10.00;4.75;;;;;21.43;49.00;100691.06;5074269;27;45223;-66
2023/08/31 10:29:49;;;;;;;;;6.00;3.25;;;;;21.47;48.58;100695.22;5074184;28;49473;-66
2023/08/31 10:32:18;;;;;;;;;5.50;4.00;;;;;21.47;48.55;100692.56;5070150;28;64269;-67
2023/08/31 10:34:44;;;;;;;;;15.50;13.50;;;;;21.45;49.12;100693.63;5076351;28;45370;-67
2023/08/31 10:37:22;;;;;;;;;37.25;28.50;;;;;21.36;49.41;100685.31;5074254;27;46088;-67
2023/08/31 10:39:48;;;;;;;;;6.00;5.00;;;;;21.32;49.59;100688.31;5077711;27;45259;-66
2023/08/31 10:42:13;;;;;;;;;4.25;4.25;;;;;21.32;49.33;100689.19;5078368;27;65595;-66
2023/08/31 10:44:41;;;;;;;;;4.50;4.50;;;;;21.35;49.82;100682.78;5078930;28;72130;-67
2023/08/31 10:47:08;;;;;;;;;6.50;5.00;;;;;21.30;49.80;100688.44;5075745;27;46391;-66
2023/08/31 10:49:33;;;;;;;;;5.00;4.25;;;;;21.19;49.23;100685.69;5078541;27;45449;-66
2023/08/31 10:52:19;;;;;;;;;5.25;4.25;;;;;21.11;50.12;100686.28;5075064;28;69343;-66
2023/08/31 10:54:46;;;;;;;;;9.75;6.00;;;;;21.05;49.87;100684.03;5078289;27;45413;-67
2023/08/31 10:57:13;;;;;;;;;7.00;5.00;;;;;21.02;49.98;100682.44;5075935;28;45541;-67
2023/08/31 10:59:54;;;;;;;;;3.25;3.00;;;;;21.06;50.12;100667.13;5079137;27;45662;-67
2023/08/31 11:02:41;;;;;;;;;5.25;4.75;;;;;21.14;49.83;100677.19;5075346;28;45564;-67
2023/08/31 11:05:09;;;;;;;;;6.25;4.50;;;;;21.21;49.63;100681.97;5076112;28;45606;-67
2023/08/31 11:07:35;;;;;;;;;7.75;5.25;;;;;21.18;49.08;100671.56;5074600;27;46212;-67
2023/08/31 11:10:21;;;;;;;;;7.25;4.00;;;;;21.18;48.95;100665.38;5080161;27;45361;-67
2023/08/31 11:12:54;;;;;;;;;4.00;4.00;;;;;21.18;48.77;100670.72;5069027;27;45520;-67
2023/08/31 11:15:21;;;;;;;;;8.00;4.75;;;;;21.15;49.02;100660.28;5078128;27;45424;-67
2023/08/31 11:17:49;;;;;;;;;7.50;4.00;;;;;21.15;48.92;100665.59;5070158;27;47168;-68
2023/08/31 11:20:17;;;;;;;;;5.50;3.50;;;;;21.15;49.20;100665.59;5077061;27;45687;-67
2023/08/31 11:22:44;;;;;;;;;4.50;3.25;;;;;21.14;49.00;100658.56;5070899;27;45307;-66